sensor_id;sensor_type;location;lat;lon;timestamp;P1;durP1;ratioP1;P2;durP2;ratioP2
12314;SDS011;23886;46.614;14.276;2023-04-25T00:02:12;6.37;;;5.87;;
12314;SDS011;23886;46.614;14.276;2023-04-25T00:04:41;5.47;;;4.97;;
12314;SDS011;23886;46.614;14.276;2023-04-25T00:07:08;5.53;;;4.90;;
12314;SDS011;23886;46.614;14.276;2023-04-25T00:09:35;6.43;;;5.30;;
12314;SDS011;23886;46.614;14.276;2023-04-25T00:12:02;4.53;;;4.13;;
12314;SDS011;23886;46.614;14.276;2023-04-25T00:14:30;3.73;;;3.40;;
12314;SDS011;23886;46.614;14.276;2023-04-25T00:16:59;5.00;;;4.50;;
12314;SDS011;23886;46.614;14.276;2023-04-25T00:19:26;5.00;;;4.50;;
12314;SDS011;23886;46.614;14.276;2023-04-25T00:21:54;6.30;;;4.40;;
12314;SDS011;23886;46.614;14.276;2023-04-25T00:24:21;4.63;;;4.23;;
12314;SDS011;23886;46.614;14.276;2023-04-25T00:26:48;4.00;;;3.70;;
12314;SDS011;23886;46.614;14.276;2023-04-25T00:29:15;4.67;;;3.87;;
12314;SDS011;23886;46.614;14.276;2023-04-25T00:31:42;5.20;;;4.70;;
12314;SDS011;23886;46.614;14.276;2023-04-25T00:34:09;4.57;;;4.23;;
12314;SDS011;23886;46.614;14.276;2023-04-25T00:36:36;4.80;;;4.30;;
12314;SDS011;23886;46.614;14.276;2023-04-25T00:39:05;5.97;;;5.47;;
12314;SDS011;23886;46.614;14.276;2023-04-25T00:41:32;8.07;;;6.33;;
12314;SDS011;23886;46.614;14.276;2023-04-25T00:43:59;10.03;;;9.10;;
12314;SDS011;23886;46.614;14.276;2023-04-25T00:46:28;9.33;;;8.43;;
12314;SDS011;23886;46.614;14.276;2023-04-25T00:48:56;8.73;;;7.93;;
12314;SDS011;23886;46.614;14.276;2023-04-25T00:51:23;7.53;;;6.83;;
12314;SDS011;23886;46.614;14.276;2023-04-25T00:53:51;7.97;;;7.27;;
12314;SDS011;23886;46.614;14.276;2023-04-25T00:56:20;10.30;;;8.57;;
12314;SDS011;23886;46.614;14.276;2023-04-25T00:58:47;7.40;;;6.80;;
12314;SDS011;23886;46.614;14.276;2023-04-25T01:01:15;5.47;;;4.97;;
12314;SDS011;23886;46.614;14.276;2023-04-25T01:03:42;5.33;;;4.90;;
12314;SDS011;23886;46.614;14.276;2023-04-25T01:06:12;6.23;;;5.60;;
12314;SDS011;23886;46.614;14.276;2023-04-25T01:08:39;7.67;;;6.50;;
12314;SDS011;23886;46.614;14.276;2023-04-25T01:11:06;7.00;;;6.40;;
12314;SDS011;23886;46.614;14.276;2023-04-25T01:13:35;6.70;;;6.10;;
12314;SDS011;23886;46.614;14.276;2023-04-25T01:16:02;7.07;;;6.53;;
12314;SDS011;23886;46.614;14.276;2023-04-25T01:18:31;7.73;;;6.33;;
12314;SDS011;23886;46.614;14.276;2023-04-25T01:21:02;6.47;;;5.87;;
12314;SDS011;23886;46.614;14.276;2023-04-25T01:23:35;6.07;;;5.57;;
12314;SDS011;23886;46.614;14.276;2023-04-25T01:26:02;6.85;;;6.28;;
12314;SDS011;23886;46.614;14.276;2023-04-25T01:28:30;5.93;;;5.43;;
12314;SDS011;23886;46.614;14.276;2023-04-25T01:30:57;6.43;;;5.93;;
12314;SDS011;23886;46.614;14.276;2023-04-25T01:33:25;6.10;;;5.60;;
12314;SDS011;23886;46.614;14.276;2023-04-25T01:35:52;6.13;;;5.63;;
12314;SDS011;23886;46.614;14.276;2023-04-25T01:38:20;7.20;;;6.60;;
12314;SDS011;23886;46.614;14.276;2023-04-25T01:40:47;6.07;;;5.57;;
12314;SDS011;23886;46.614;14.276;2023-04-25T01:43:16;5.93;;;5.43;;
12314;SDS011;23886;46.614;14.276;2023-04-25T01:45:44;5.27;;;4.77;;
12314;SDS011;23886;46.614;14.276;2023-04-25T01:48:11;6.03;;;5.20;;
12314;SDS011;23886;46.614;14.276;2023-04-25T01:50:39;5.40;;;5.00;;
12314;SDS011;23886;46.614;14.276;2023-04-25T01:53:07;5.13;;;4.73;;
12314;SDS011;23886;46.614;14.276;2023-04-25T01:55:37;5.53;;;5.13;;
12314;SDS011;23886;46.614;14.276;2023-04-25T01:58:04;5.77;;;5.37;;
12314;SDS011;23886;46.614;14.276;2023-04-25T02:00:34;6.43;;;5.90;;
12314;SDS011;23886;46.614;14.276;2023-04-25T02:03:03;6.00;;;5.50;;
12314;SDS011;23886;46.614;14.276;2023-04-25T02:05:33;5.73;;;5.23;;
12314;SDS011;23886;46.614;14.276;2023-04-25T02:08:01;6.57;;;6.00;;
12314;SDS011;23886;46.614;14.276;2023-04-25T02:10:29;7.03;;;6.43;;
12314;SDS011;23886;46.614;14.276;2023-04-25T02:12:58;6.77;;;6.17;;
12314;SDS011;23886;46.614;14.276;2023-04-25T02:15:25;7.60;;;6.90;;
12314;SDS011;23886;46.614;14.276;2023-04-25T02:17:52;7.23;;;6.53;;
12314;SDS011;23886;46.614;14.276;2023-04-25T02:20:20;7.83;;;7.13;;
12314;SDS011;23886;46.614;14.276;2023-04-25T02:22:47;7.83;;;7.17;;
12314;SDS011;23886;46.614;14.276;2023-04-25T02:25:14;7.30;;;6.60;;
12314;SDS011;23886;46.614;14.276;2023-04-25T02:27:42;6.30;;;5.80;;
12314;SDS011;23886;46.614;14.276;2023-04-25T02:30:11;5.50;;;5.00;;
12314;SDS011;23886;46.614;14.276;2023-04-25T02:32:38;6.37;;;5.77;;
12314;SDS011;23886;46.614;14.276;2023-04-25T02:35:06;5.50;;;5.00;;
12314;SDS011;23886;46.614;14.276;2023-04-25T02:37:34;5.87;;;5.37;;
12314;SDS011;23886;46.614;14.276;2023-04-25T02:40:03;6.87;;;6.27;;
12314;SDS011;23886;46.614;14.276;2023-04-25T02:42:30;6.33;;;5.73;;
12314;SDS011;23886;46.614;14.276;2023-04-25T02:44:58;6.43;;;5.83;;
12314;SDS011;23886;46.614;14.276;2023-04-25T02:47:26;6.80;;;6.27;;
12314;SDS011;23886;46.614;14.276;2023-04-25T02:49:54;6.40;;;5.90;;
12314;SDS011;23886;46.614;14.276;2023-04-25T02:52:21;7.20;;;6.57;;
12314;SDS011;23886;46.614;14.276;2023-04-25T02:54:48;6.57;;;5.97;;
12314;SDS011;23886;46.614;14.276;2023-04-25T02:57:15;6.27;;;5.67;;
12314;SDS011;23886;46.614;14.276;2023-04-25T02:59:42;5.97;;;5.47;;
12314;SDS011;23886;46.614;14.276;2023-04-25T03:02:09;5.83;;;5.20;;
12314;SDS011;23886;46.614;14.276;2023-04-25T03:04:37;5.57;;;5.07;;
12314;SDS011;23886;46.614;14.276;2023-04-25T03:07:04;5.50;;;5.10;;
12314;SDS011;23886;46.614;14.276;2023-04-25T03:09:32;5.57;;;5.07;;
12314;SDS011;23886;46.614;14.276;2023-04-25T03:11:58;6.13;;;5.63;;
12314;SDS011;23886;46.614;14.276;2023-04-25T03:14:26;5.93;;;5.33;;
12314;SDS011;23886;46.614;14.276;2023-04-25T03:16:53;5.57;;;5.17;;
12314;SDS011;23886;46.614;14.276;2023-04-25T03:19:20;5.30;;;4.80;;
12314;SDS011;23886;46.614;14.276;2023-04-25T03:21:48;5.30;;;4.90;;
12314;SDS011;23886;46.614;14.276;2023-04-25T03:24:15;5.60;;;5.20;;
12314;SDS011;23886;46.614;14.276;2023-04-25T03:26:42;5.70;;;5.30;;
12314;SDS011;23886;46.614;14.276;2023-04-25T03:29:09;5.60;;;5.10;;
12314;SDS011;23886;46.614;14.276;2023-04-25T03:31:36;5.70;;;5.20;;
12314;SDS011;23886;46.614;14.276;2023-04-25T03:34:03;5.53;;;5.03;;
12314;SDS011;23886;46.614;14.276;2023-04-25T03:36:30;5.30;;;4.90;;
12314;SDS011;23886;46.614;14.276;2023-04-25T03:38:59;5.10;;;4.70;;
12314;SDS011;23886;46.614;14.276;2023-04-25T03:41:26;5.77;;;4.77;;
12314;SDS011;23886;46.614;14.276;2023-04-25T03:43:53;4.90;;;4.50;;
12314;SDS011;23886;46.614;14.276;2023-04-25T03:46:20;4.97;;;4.50;;
12314;SDS011;23886;46.614;14.276;2023-04-25T03:48:47;5.50;;;5.00;;
12314;SDS011;23886;46.614;14.276;2023-04-25T03:51:14;5.10;;;4.70;;
12314;SDS011;23886;46.614;14.276;2023-04-25T03:53:41;5.33;;;4.83;;
12314;SDS011;23886;46.614;14.276;2023-04-25T03:56:09;5.37;;;4.97;;
12314;SDS011;23886;46.614;14.276;2023-04-25T03:58:36;5.63;;;5.17;;
12314;SDS011;23886;46.614;14.276;2023-04-25T04:01:03;7.17;;;6.57;;
12314;SDS011;23886;46.614;14.276;2023-04-25T04:03:32;6.90;;;6.30;;
12314;SDS011;23886;46.614;14.276;2023-04-25T04:06:00;6.23;;;5.73;;
12314;SDS011;23886;46.614;14.276;2023-04-25T04:08:27;5.43;;;4.93;;
12314;SDS011;23886;46.614;14.276;2023-04-25T04:10:54;5.20;;;4.70;;
12314;SDS011;23886;46.614;14.276;2023-04-25T04:13:23;5.07;;;4.60;;
12314;SDS011;23886;46.614;14.276;2023-04-25T04:15:50;6.37;;;5.70;;
12314;SDS011;23886;46.614;14.276;2023-04-25T04:18:17;6.60;;;6.10;;
12314;SDS011;23886;46.614;14.276;2023-04-25T04:20:44;7.67;;;7.00;;
12314;SDS011;23886;46.614;14.276;2023-04-25T04:23:11;7.80;;;7.10;;
12314;SDS011;23886;46.614;14.276;2023-04-25T04:25:38;7.17;;;6.57;;
12314;SDS011;23886;46.614;14.276;2023-04-25T04:28:06;6.87;;;6.27;;
12314;SDS011;23886;46.614;14.276;2023-04-25T04:30:35;7.73;;;7.13;;
12314;SDS011;23886;46.614;14.276;2023-04-25T04:33:02;7.20;;;6.60;;
12314;SDS011;23886;46.614;14.276;2023-04-25T04:35:29;8.40;;;6.40;;
12314;SDS011;23886;46.614;14.276;2023-04-25T04:37:56;6.50;;;5.97;;
12314;SDS011;23886;46.614;14.276;2023-04-25T04:40:23;6.73;;;6.13;;
12314;SDS011;23886;46.614;14.276;2023-04-25T04:42:50;6.47;;;5.90;;
12314;SDS011;23886;46.614;14.276;2023-04-25T04:45:18;6.30;;;5.70;;
12314;SDS011;23886;46.614;14.276;2023-04-25T04:47:47;6.53;;;5.40;;
12314;SDS011;23886;46.614;14.276;2023-04-25T04:50:14;5.50;;;5.00;;
12314;SDS011;23886;46.614;14.276;2023-04-25T04:52:41;6.10;;;5.23;;
12314;SDS011;23886;46.614;14.276;2023-04-25T04:55:08;5.70;;;5.20;;
12314;SDS011;23886;46.614;14.276;2023-04-25T04:57:35;5.87;;;5.37;;
12314;SDS011;23886;46.614;14.276;2023-04-25T05:00:04;5.73;;;5.20;;
12314;SDS011;23886;46.614;14.276;2023-04-25T05:02:36;5.70;;;5.20;;
12314;SDS011;23886;46.614;14.276;2023-04-25T05:05:05;5.67;;;5.00;;
12314;SDS011;23886;46.614;14.276;2023-04-25T05:07:32;5.53;;;5.03;;
12314;SDS011;23886;46.614;14.276;2023-04-25T05:09:59;5.63;;;5.13;;
12314;SDS011;23886;46.614;14.276;2023-04-25T05:12:26;5.33;;;4.83;;
12314;SDS011;23886;46.614;14.276;2023-04-25T05:14:53;5.03;;;4.53;;
12314;SDS011;23886;46.614;14.276;2023-04-25T05:17:20;6.80;;;5.40;;
12314;SDS011;23886;46.614;14.276;2023-04-25T05:19:47;6.37;;;5.23;;
12314;SDS011;23886;46.614;14.276;2023-04-25T05:22:15;5.03;;;4.60;;
12314;SDS011;23886;46.614;14.276;2023-04-25T05:24:42;5.00;;;4.60;;
12314;SDS011;23886;46.614;14.276;2023-04-25T05:27:09;5.03;;;4.50;;
12314;SDS011;23886;46.614;14.276;2023-04-25T05:29:36;4.93;;;4.53;;
12314;SDS011;23886;46.614;14.276;2023-04-25T05:32:04;6.13;;;4.47;;
12314;SDS011;23886;46.614;14.276;2023-04-25T05:34:32;4.97;;;4.57;;
12314;SDS011;23886;46.614;14.276;2023-04-25T05:36:59;5.10;;;4.70;;
12314;SDS011;23886;46.614;14.276;2023-04-25T05:39:28;5.40;;;4.90;;
12314;SDS011;23886;46.614;14.276;2023-04-25T05:41:55;4.63;;;4.23;;
12314;SDS011;23886;46.614;14.276;2023-04-25T05:44:22;4.50;;;4.10;;
12314;SDS011;23886;46.614;14.276;2023-04-25T05:46:49;4.97;;;4.33;;
12314;SDS011;23886;46.614;14.276;2023-04-25T05:49:16;4.47;;;4.10;;
12314;SDS011;23886;46.614;14.276;2023-04-25T05:51:43;4.53;;;4.13;;
12314;SDS011;23886;46.614;14.276;2023-04-25T05:54:09;4.80;;;4.40;;
12314;SDS011;23886;46.614;14.276;2023-04-25T05:56:38;4.60;;;4.00;;
12314;SDS011;23886;46.614;14.276;2023-04-25T05:59:05;4.00;;;3.70;;
12314;SDS011;23886;46.614;14.276;2023-04-25T06:01:32;5.37;;;4.13;;
12314;SDS011;23886;46.614;14.276;2023-04-25T06:03:59;4.10;;;3.70;;
12314;SDS011;23886;46.614;14.276;2023-04-25T06:06:26;4.10;;;3.80;;
12314;SDS011;23886;46.614;14.276;2023-04-25T06:08:53;4.67;;;4.27;;
12314;SDS011;23886;46.614;14.276;2023-04-25T06:11:20;4.17;;;3.77;;
12314;SDS011;23886;46.614;14.276;2023-04-25T06:13:49;3.97;;;3.60;;
12314;SDS011;23886;46.614;14.276;2023-04-25T06:16:16;4.20;;;3.80;;
12314;SDS011;23886;46.614;14.276;2023-04-25T06:18:43;4.07;;;3.77;;
12314;SDS011;23886;46.614;14.276;2023-04-25T06:21:10;4.07;;;3.50;;
12314;SDS011;23886;46.614;14.276;2023-04-25T06:23:37;3.60;;;3.30;;
12314;SDS011;23886;46.614;14.276;2023-04-25T06:26:04;3.83;;;3.50;;
12314;SDS011;23886;46.614;14.276;2023-04-25T06:28:31;3.87;;;3.50;;
12314;SDS011;23886;46.614;14.276;2023-04-25T06:30:59;4.13;;;3.73;;
12314;SDS011;23886;46.614;14.276;2023-04-25T06:33:26;4.00;;;3.60;;
12314;SDS011;23886;46.614;14.276;2023-04-25T06:35:53;5.70;;;5.20;;
12314;SDS011;23886;46.614;14.276;2023-04-25T06:38:20;4.27;;;3.87;;
12314;SDS011;23886;46.614;14.276;2023-04-25T06:40:47;4.63;;;4.23;;
12314;SDS011;23886;46.614;14.276;2023-04-25T06:43:14;3.70;;;3.37;;
12314;SDS011;23886;46.614;14.276;2023-04-25T06:45:41;4.00;;;3.70;;
12314;SDS011;23886;46.614;14.276;2023-04-25T06:48:11;3.87;;;3.37;;
12314;SDS011;23886;46.614;14.276;2023-04-25T06:50:41;3.90;;;3.50;;
12314;SDS011;23886;46.614;14.276;2023-04-25T06:53:08;3.50;;;3.20;;
12314;SDS011;23886;46.614;14.276;2023-04-25T06:55:36;3.87;;;3.03;;
12314;SDS011;23886;46.614;14.276;2023-04-25T06:58:03;3.50;;;3.20;;
12314;SDS011;23886;46.614;14.276;2023-04-25T07:00:30;4.00;;;3.20;;
12314;SDS011;23886;46.614;14.276;2023-04-25T07:02:58;3.30;;;3.00;;
12314;SDS011;23886;46.614;14.276;2023-04-25T07:05:27;3.50;;;3.20;;
12314;SDS011;23886;46.614;14.276;2023-04-25T07:07:54;4.67;;;4.27;;
12314;SDS011;23886;46.614;14.276;2023-04-25T07:10:21;3.10;;;2.90;;
12314;SDS011;23886;46.614;14.276;2023-04-25T07:12:48;4.77;;;2.87;;
12314;SDS011;23886;46.614;14.276;2023-04-25T07:15:15;2.93;;;2.73;;
12314;SDS011;23886;46.614;14.276;2023-04-25T07:17:42;2.70;;;2.50;;
12314;SDS011;23886;46.614;14.276;2023-04-25T07:20:09;2.60;;;2.40;;
12314;SDS011;23886;46.614;14.276;2023-04-25T07:22:38;3.30;;;2.73;;
12314;SDS011;23886;46.614;14.276;2023-04-25T07:25:05;2.83;;;2.63;;
12314;SDS011;23886;46.614;14.276;2023-04-25T07:27:33;2.77;;;2.57;;
12314;SDS011;23886;46.614;14.276;2023-04-25T07:30:00;3.30;;;3.00;;
12314;SDS011;23886;46.614;14.276;2023-04-25T07:32:28;2.73;;;2.53;;
12314;SDS011;23886;46.614;14.276;2023-04-25T07:34:55;3.93;;;2.70;;
12314;SDS011;23886;46.614;14.276;2023-04-25T07:37:22;2.90;;;2.70;;
12314;SDS011;23886;46.614;14.276;2023-04-25T07:39:51;2.93;;;2.73;;
12314;SDS011;23886;46.614;14.276;2023-04-25T07:42:18;3.17;;;2.70;;
12314;SDS011;23886;46.614;14.276;2023-04-25T07:44:46;2.80;;;2.60;;
12314;SDS011;23886;46.614;14.276;2023-04-25T07:47:13;3.00;;;2.80;;
12314;SDS011;23886;46.614;14.276;2023-04-25T07:49:40;4.07;;;3.03;;
12314;SDS011;23886;46.614;14.276;2023-04-25T07:52:07;3.10;;;2.90;;
12314;SDS011;23886;46.614;14.276;2023-04-25T07:54:34;4.50;;;2.77;;
12314;SDS011;23886;46.614;14.276;2023-04-25T07:57:03;2.90;;;2.70;;
12314;SDS011;23886;46.614;14.276;2023-04-25T07:59:31;2.90;;;2.70;;
12314;SDS011;23886;46.614;14.276;2023-04-25T08:01:58;3.10;;;2.63;;
12314;SDS011;23886;46.614;14.276;2023-04-25T08:04:26;3.20;;;3.00;;
12314;SDS011;23886;46.614;14.276;2023-04-25T08:06:53;2.87;;;2.67;;
12314;SDS011;23886;46.614;14.276;2023-04-25T08:09:20;2.87;;;2.67;;
12314;SDS011;23886;46.614;14.276;2023-04-25T08:11:47;2.80;;;2.60;;
12314;SDS011;23886;46.614;14.276;2023-04-25T08:14:16;3.70;;;3.40;;
12314;SDS011;23886;46.614;14.276;2023-04-25T08:16:43;2.83;;;2.63;;
12314;SDS011;23886;46.614;14.276;2023-04-25T08:19:10;3.23;;;2.40;;
12314;SDS011;23886;46.614;14.276;2023-04-25T08:21:37;2.70;;;2.50;;
12314;SDS011;23886;46.614;14.276;2023-04-25T08:24:04;2.87;;;2.60;;
12314;SDS011;23886;46.614;14.276;2023-04-25T08:26:31;4.30;;;2.70;;
12314;SDS011;23886;46.614;14.276;2023-04-25T08:28:59;2.50;;;2.30;;
12314;SDS011;23886;46.614;14.276;2023-04-25T08:31:27;2.60;;;2.40;;
12314;SDS011;23886;46.614;14.276;2023-04-25T08:33:54;2.50;;;2.30;;
12314;SDS011;23886;46.614;14.276;2023-04-25T08:36:21;3.50;;;2.70;;
12314;SDS011;23886;46.614;14.276;2023-04-25T08:38:49;3.93;;;2.47;;
12314;SDS011;23886;46.614;14.276;2023-04-25T08:41:16;2.80;;;2.57;;
12314;SDS011;23886;46.614;14.276;2023-04-25T08:43:44;2.60;;;2.40;;
12314;SDS011;23886;46.614;14.276;2023-04-25T08:46:13;3.37;;;2.63;;
12314;SDS011;23886;46.614;14.276;2023-04-25T08:48:45;3.50;;;2.37;;
12314;SDS011;23886;46.614;14.276;2023-04-25T08:51:14;2.73;;;2.53;;
12314;SDS011;23886;46.614;14.276;2023-04-25T08:53:48;2.90;;;2.70;;
12314;SDS011;23886;46.614;14.276;2023-04-25T08:56:17;3.17;;;2.87;;
12314;SDS011;23886;46.614;14.276;2023-04-25T08:58:47;2.40;;;2.20;;
12314;SDS011;23886;46.614;14.276;2023-04-25T09:01:15;2.60;;;2.27;;
12314;SDS011;23886;46.614;14.276;2023-04-25T09:03:44;2.37;;;2.17;;
12314;SDS011;23886;46.614;14.276;2023-04-25T09:06:12;2.50;;;2.30;;
12314;SDS011;23886;46.614;14.276;2023-04-25T09:08:41;2.67;;;2.47;;
12314;SDS011;23886;46.614;14.276;2023-04-25T09:11:08;2.97;;;2.40;;
12314;SDS011;23886;46.614;14.276;2023-04-25T09:13:35;3.77;;;2.80;;
12314;SDS011;23886;46.614;14.276;2023-04-25T09:16:02;2.80;;;2.60;;
12314;SDS011;23886;46.614;14.276;2023-04-25T09:18:29;2.83;;;2.63;;
12314;SDS011;23886;46.614;14.276;2023-04-25T09:21:04;2.90;;;2.70;;
12314;SDS011;23886;46.614;14.276;2023-04-25T09:23:38;3.10;;;2.60;;
12314;SDS011;23886;46.614;14.276;2023-04-25T09:26:06;3.00;;;2.70;;
12314;SDS011;23886;46.614;14.276;2023-04-25T09:28:34;2.90;;;2.40;;
12314;SDS011;23886;46.614;14.276;2023-04-25T09:31:02;3.53;;;2.50;;
12314;SDS011;23886;46.614;14.276;2023-04-25T09:33:30;2.83;;;2.53;;
12314;SDS011;23886;46.614;14.276;2023-04-25T09:36:04;3.20;;;2.90;;
12314;SDS011;23886;46.614;14.276;2023-04-25T09:38:40;4.33;;;2.70;;
12314;SDS011;23886;46.614;14.276;2023-04-25T09:41:08;3.17;;;2.87;;
12314;SDS011;23886;46.614;14.276;2023-04-25T09:43:36;2.93;;;2.60;;
12314;SDS011;23886;46.614;14.276;2023-04-25T09:46:07;2.80;;;2.60;;
12314;SDS011;23886;46.614;14.276;2023-04-25T09:48:36;3.00;;;2.53;;
12314;SDS011;23886;46.614;14.276;2023-04-25T09:51:05;2.83;;;2.63;;
12314;SDS011;23886;46.614;14.276;2023-04-25T09:53:33;3.37;;;2.70;;
12314;SDS011;23886;46.614;14.276;2023-04-25T09:56:02;2.77;;;2.57;;
12314;SDS011;23886;46.614;14.276;2023-04-25T09:58:31;2.50;;;2.30;;
12314;SDS011;23886;46.614;14.276;2023-04-25T10:01:00;3.00;;;2.70;;
12314;SDS011;23886;46.614;14.276;2023-04-25T10:03:29;3.73;;;2.40;;
12314;SDS011;23886;46.614;14.276;2023-04-25T10:05:59;3.63;;;2.37;;
12314;SDS011;23886;46.614;14.276;2023-04-25T10:08:30;2.80;;;2.50;;
12314;SDS011;23886;46.614;14.276;2023-04-25T10:10:59;2.37;;;2.03;;
12314;SDS011;23886;46.614;14.276;2023-04-25T10:13:28;2.20;;;2.00;;
12314;SDS011;23886;46.614;14.276;2023-04-25T10:15:57;2.30;;;2.20;;
12314;SDS011;23886;46.614;14.276;2023-04-25T10:18:24;2.47;;;2.27;;
12314;SDS011;23886;46.614;14.276;2023-04-25T10:20:53;2.47;;;2.27;;
12314;SDS011;23886;46.614;14.276;2023-04-25T10:23:21;3.67;;;2.50;;
12314;SDS011;23886;46.614;14.276;2023-04-25T10:25:50;3.00;;;2.70;;
12314;SDS011;23886;46.614;14.276;2023-04-25T10:28:18;2.80;;;2.57;;
12314;SDS011;23886;46.614;14.276;2023-04-25T10:30:58;3.00;;;2.43;;
12314;SDS011;23886;46.614;14.276;2023-04-25T10:33:32;3.47;;;2.87;;
12314;SDS011;23886;46.614;14.276;2023-04-25T10:36:08;2.30;;;2.10;;
12314;SDS011;23886;46.614;14.276;2023-04-25T10:38:35;2.80;;;2.50;;
12314;SDS011;23886;46.614;14.276;2023-04-25T10:41:04;3.60;;;3.30;;
12314;SDS011;23886;46.614;14.276;2023-04-25T10:43:34;3.37;;;2.80;;
12314;SDS011;23886;46.614;14.276;2023-04-25T10:46:15;3.97;;;2.30;;
12314;SDS011;23886;46.614;14.276;2023-04-25T10:48:46;2.40;;;2.20;;
12314;SDS011;23886;46.614;14.276;2023-04-25T10:51:18;2.70;;;2.50;;
12314;SDS011;23886;46.614;14.276;2023-04-25T10:53:46;2.63;;;2.40;;
12314;SDS011;23886;46.614;14.276;2023-04-25T10:56:24;2.97;;;2.43;;
12314;SDS011;23886;46.614;14.276;2023-04-25T10:59:02;2.47;;;2.27;;
12314;SDS011;23886;46.614;14.276;2023-04-25T11:01:35;2.60;;;2.40;;
12314;SDS011;23886;46.614;14.276;2023-04-25T11:04:03;2.57;;;2.30;;
12314;SDS011;23886;46.614;14.276;2023-04-25T11:06:32;2.50;;;2.30;;
12314;SDS011;23886;46.614;14.276;2023-04-25T11:09:10;2.20;;;2.00;;
12314;SDS011;23886;46.614;14.276;2023-04-25T11:11:40;2.43;;;2.23;;
12314;SDS011;23886;46.614;14.276;2023-04-25T11:14:07;3.70;;;2.40;;
12314;SDS011;23886;46.614;14.276;2023-04-25T11:16:34;2.30;;;2.10;;
12314;SDS011;23886;46.614;14.276;2023-04-25T11:19:02;2.40;;;2.20;;
12314;SDS011;23886;46.614;14.276;2023-04-25T11:21:29;2.37;;;2.17;;
12314;SDS011;23886;46.614;14.276;2023-04-25T11:23:58;4.00;;;2.43;;
12314;SDS011;23886;46.614;14.276;2023-04-25T11:26:25;2.00;;;1.90;;
12314;SDS011;23886;46.614;14.276;2023-04-25T11:28:58;2.57;;;2.30;;
12314;SDS011;23886;46.614;14.276;2023-04-25T11:31:25;3.53;;;2.33;;
12314;SDS011;23886;46.614;14.276;2023-04-25T11:33:53;2.70;;;2.23;;
12314;SDS011;23886;46.614;14.276;2023-04-25T11:36:20;2.67;;;2.20;;
12314;SDS011;23886;46.614;14.276;2023-04-25T11:38:49;3.27;;;2.17;;
12314;SDS011;23886;46.614;14.276;2023-04-25T11:41:16;3.17;;;2.67;;
12314;SDS011;23886;46.614;14.276;2023-04-25T11:43:44;3.27;;;2.27;;
12314;SDS011;23886;46.614;14.276;2023-04-25T11:46:12;2.93;;;2.20;;
12314;SDS011;23886;46.614;14.276;2023-04-25T11:48:39;2.53;;;2.20;;
12314;SDS011;23886;46.614;14.276;2023-04-25T11:51:07;2.20;;;1.97;;
12314;SDS011;23886;46.614;14.276;2023-04-25T11:53:34;3.20;;;2.00;;
12314;SDS011;23886;46.614;14.276;2023-04-25T11:56:02;2.10;;;1.90;;
12314;SDS011;23886;46.614;14.276;2023-04-25T12:01:26;1.90;;;1.73;;
12314;SDS011;23886;46.614;14.276;2023-04-25T12:03:54;1.83;;;1.73;;
12314;SDS011;23886;46.614;14.276;2023-04-25T12:06:21;2.67;;;1.73;;
12314;SDS011;23886;46.614;14.276;2023-04-25T12:09:02;2.77;;;1.70;;
12314;SDS011;23886;46.614;14.276;2023-04-25T12:11:30;2.10;;;1.90;;
12314;SDS011;23886;46.614;14.276;2023-04-25T12:14:01;3.00;;;1.87;;
12314;SDS011;23886;46.614;14.276;2023-04-25T12:16:39;1.80;;;1.57;;
12314;SDS011;23886;46.614;14.276;2023-04-25T12:19:07;1.90;;;1.70;;
12314;SDS011;23886;46.614;14.276;2023-04-25T12:21:34;3.10;;;1.80;;
12314;SDS011;23886;46.614;14.276;2023-04-25T12:24:11;2.70;;;1.90;;
12314;SDS011;23886;46.614;14.276;2023-04-25T12:26:49;2.20;;;1.40;;
12314;SDS011;23886;46.614;14.276;2023-04-25T12:29:20;1.90;;;1.70;;
12314;SDS011;23886;46.614;14.276;2023-04-25T12:31:50;3.07;;;1.87;;
12314;SDS011;23886;46.614;14.276;2023-04-25T12:34:18;5.20;;;1.70;;
12314;SDS011;23886;46.614;14.276;2023-04-25T12:36:46;1.60;;;1.50;;
12314;SDS011;23886;46.614;14.276;2023-04-25T12:39:17;1.40;;;1.30;;
12314;SDS011;23886;46.614;14.276;2023-04-25T12:41:45;2.03;;;1.73;;
12314;SDS011;23886;46.614;14.276;2023-04-25T12:44:12;1.83;;;1.60;;
12314;SDS011;23886;46.614;14.276;2023-04-25T12:46:40;1.50;;;1.40;;
12314;SDS011;23886;46.614;14.276;2023-04-25T12:49:09;2.10;;;1.40;;
12314;SDS011;23886;46.614;14.276;2023-04-25T12:51:36;1.37;;;1.27;;
12314;SDS011;23886;46.614;14.276;2023-04-25T12:54:04;1.90;;;1.70;;
12314;SDS011;23886;46.614;14.276;2023-04-25T12:56:32;2.60;;;1.77;;
12314;SDS011;23886;46.614;14.276;2023-04-25T12:58:59;2.13;;;1.47;;
12314;SDS011;23886;46.614;14.276;2023-04-25T13:01:28;1.83;;;1.40;;
12314;SDS011;23886;46.614;14.276;2023-04-25T13:03:55;2.13;;;1.53;;
12314;SDS011;23886;46.614;14.276;2023-04-25T13:06:24;1.40;;;1.30;;
12314;SDS011;23886;46.614;14.276;2023-04-25T13:08:51;2.00;;;1.10;;
12314;SDS011;23886;46.614;14.276;2023-04-25T13:11:18;1.00;;;0.90;;
12314;SDS011;23886;46.614;14.276;2023-04-25T13:13:45;1.60;;;1.20;;
12314;SDS011;23886;46.614;14.276;2023-04-25T13:16:12;0.77;;;0.73;;
12314;SDS011;23886;46.614;14.276;2023-04-25T13:18:40;1.13;;;0.87;;
12314;SDS011;23886;46.614;14.276;2023-04-25T13:21:08;1.50;;;1.00;;
12314;SDS011;23886;46.614;14.276;2023-04-25T13:23:37;1.27;;;0.80;;
12314;SDS011;23886;46.614;14.276;2023-04-25T13:26:04;1.30;;;1.00;;
12314;SDS011;23886;46.614;14.276;2023-04-25T13:28:31;3.27;;;1.10;;
12314;SDS011;23886;46.614;14.276;2023-04-25T13:30:58;1.77;;;0.93;;
12314;SDS011;23886;46.614;14.276;2023-04-25T13:33:25;1.33;;;0.90;;
12314;SDS011;23886;46.614;14.276;2023-04-25T13:35:52;2.23;;;1.03;;
12314;SDS011;23886;46.614;14.276;2023-04-25T13:38:21;1.23;;;1.00;;
12314;SDS011;23886;46.614;14.276;2023-04-25T13:40:50;1.43;;;0.97;;
12314;SDS011;23886;46.614;14.276;2023-04-25T13:43:18;1.07;;;0.97;;
12314;SDS011;23886;46.614;14.276;2023-04-25T13:45:46;1.07;;;0.97;;
12314;SDS011;23886;46.614;14.276;2023-04-25T13:48:13;2.23;;;0.90;;
12314;SDS011;23886;46.614;14.276;2023-04-25T13:50:41;1.73;;;1.17;;
12314;SDS011;23886;46.614;14.276;2023-04-25T13:53:07;0.80;;;0.80;;
12314;SDS011;23886;46.614;14.276;2023-04-25T13:55:35;1.63;;;1.30;;
12314;SDS011;23886;46.614;14.276;2023-04-25T13:58:04;1.23;;;1.00;;
12314;SDS011;23886;46.614;14.276;2023-04-25T14:00:33;1.60;;;1.03;;
12314;SDS011;23886;46.614;14.276;2023-04-25T14:03:03;0.80;;;0.80;;
12314;SDS011;23886;46.614;14.276;2023-04-25T14:05:32;1.30;;;0.83;;
12314;SDS011;23886;46.614;14.276;2023-04-25T14:08:03;1.00;;;1.00;;
12314;SDS011;23886;46.614;14.276;2023-04-25T14:10:31;1.13;;;1.10;;
12314;SDS011;23886;46.614;14.276;2023-04-25T14:12:58;1.30;;;1.00;;
12314;SDS011;23886;46.614;14.276;2023-04-25T14:15:27;1.60;;;1.50;;
12314;SDS011;23886;46.614;14.276;2023-04-25T14:17:54;1.10;;;1.00;;
12314;SDS011;23886;46.614;14.276;2023-04-25T14:20:21;1.60;;;0.93;;
12314;SDS011;23886;46.614;14.276;2023-04-25T14:22:48;2.33;;;1.20;;
12314;SDS011;23886;46.614;14.276;2023-04-25T14:25:17;2.37;;;0.93;;
12314;SDS011;23886;46.614;14.276;2023-04-25T14:27:44;1.30;;;1.17;;
12314;SDS011;23886;46.614;14.276;2023-04-25T14:30:14;1.77;;;1.13;;
12314;SDS011;23886;46.614;14.276;2023-04-25T14:32:43;1.17;;;1.07;;
12314;SDS011;23886;46.614;14.276;2023-04-25T14:35:10;1.97;;;1.30;;
12314;SDS011;23886;46.614;14.276;2023-04-25T14:37:37;1.67;;;1.20;;
12314;SDS011;23886;46.614;14.276;2023-04-25T14:40:05;1.37;;;1.20;;
12314;SDS011;23886;46.614;14.276;2023-04-25T14:42:33;2.63;;;1.27;;